createdAt,value
2022-09-12T00:09:49.351Z,99.90
2022-09-12T00:19:53.229Z,99.90
2022-09-12T00:29:58.196Z,99.90
2022-09-12T00:40:01.864Z,99.90
2022-09-12T00:50:11.212Z,99.90
2022-09-12T01:00:19.272Z,99.90
2022-09-12T01:10:25.172Z,99.90
2022-09-12T01:20:47.635Z,99.90
2022-09-12T01:31:01.233Z,99.90
2022-09-12T01:41:12.676Z,99.90
2022-09-12T01:51:23.895Z,99.90
2022-09-12T02:01:30.468Z,99.90
2022-09-12T02:11:41.501Z,99.90
2022-09-12T02:21:50.703Z,99.90
2022-09-12T02:31:59.871Z,99.90
2022-09-12T02:42:05.058Z,99.90
2022-09-12T02:52:10.103Z,99.90
2022-09-12T03:02:29.472Z,99.90
2022-09-12T03:12:48.567Z,99.90
2022-09-12T03:22:57.422Z,99.90
2022-09-12T03:33:02.434Z,99.90
2022-09-12T03:43:07.992Z,99.90
2022-09-12T03:53:16.564Z,99.90
2022-09-12T04:03:21.211Z,99.90
2022-09-12T04:13:28.778Z,99.90
2022-09-12T04:23:32.731Z,99.90
2022-09-12T04:33:37.851Z,99.90
2022-09-12T04:43:42.071Z,99.90
2022-09-12T04:53:51.229Z,99.90
2022-09-12T05:03:55.934Z,99.90
2022-09-12T05:14:01.509Z,99.90
2022-09-12T05:24:06.287Z,99.90
2022-09-12T05:34:11.925Z,99.90
2022-09-12T05:44:18.974Z,99.90
2022-09-12T05:54:27.249Z,99.90
2022-09-12T06:04:33.401Z,99.90
2022-09-12T06:14:41.332Z,99.90
2022-09-12T06:24:45.188Z,99.90
2022-09-12T06:34:51.808Z,99.90
2022-09-12T06:44:55.678Z,99.90
2022-09-12T06:55:00.698Z,99.90
2022-09-12T07:05:04.841Z,99.90
2022-09-12T07:15:11.913Z,99.90
2022-09-12T07:25:16.013Z,99.90
2022-09-12T07:35:20.983Z,99.90
2022-09-12T07:45:26.729Z,99.90
2022-09-12T07:55:32.220Z,99.90
2022-09-12T08:05:36.100Z,99.90
2022-09-12T08:15:41.352Z,99.90
2022-09-12T08:25:44.999Z,99.90
2022-09-12T08:35:51.111Z,99.60
2022-09-12T08:46:03.155Z,99.10
2022-09-12T08:56:11.679Z,99.30
2022-09-12T09:06:30.116Z,98.20
2022-09-12T09:16:39.402Z,97.70
2022-09-12T09:26:48.152Z,96.70
2022-09-12T09:37:00.844Z,96.30
2022-09-12T09:47:05.265Z,95.20
2022-09-12T09:57:41.908Z,94.10
2022-09-12T10:07:51.822Z,94.30
2022-09-12T10:17:56.986Z,93.00
2022-09-12T10:28:02.835Z,92.80
2022-09-12T10:38:19.230Z,91.70
2022-09-12T10:48:31.666Z,91.60
2022-09-12T10:59:03.575Z,91.40
2022-09-12T11:09:16.913Z,90.40
2022-09-12T11:19:54.875Z,89.30
2022-09-12T11:30:00.838Z,86.80
2022-09-12T11:40:27.701Z,85.90
2022-09-12T11:50:33.514Z,85.60
2022-09-12T12:00:45.245Z,84.60
2022-09-12T12:10:53.943Z,83.20
2022-09-12T12:21:22.535Z,82.30
2022-09-12T12:31:26.298Z,80.00
2022-09-12T12:41:47.192Z,80.90
2022-09-12T12:51:58.898Z,80.10
2022-09-12T13:02:05.925Z,79.80
2022-09-12T13:12:18.929Z,77.20
2022-09-12T13:22:25.980Z,76.40
2022-09-12T13:32:29.657Z,72.30
2022-09-12T13:42:41.553Z,68.40
2022-09-12T13:52:50.932Z,67.10
2022-09-12T14:03:11.000Z,68.70
2022-09-12T14:13:20.784Z,67.90
2022-09-12T14:23:30.627Z,68.70
2022-09-12T14:33:48.192Z,68.60
2022-09-12T14:43:57.562Z,68.80
2022-09-12T14:54:01.287Z,71.20
2022-09-12T15:04:06.341Z,70.40
2022-09-12T15:14:14.624Z,72.00
2022-09-12T15:24:19.855Z,70.90
2022-09-12T15:34:23.557Z,70.80
2022-09-12T15:44:28.797Z,72.70
2022-09-12T15:54:36.157Z,73.00
2022-09-12T16:04:42.184Z,74.00
2022-09-12T16:14:45.795Z,71.70
2022-09-12T16:24:55.473Z,70.80
2022-09-12T16:34:59.480Z,68.00
2022-09-12T16:45:05.373Z,70.00
2022-09-12T16:55:09.963Z,70.50
2022-09-12T17:05:18.219Z,71.40
2022-09-12T17:15:21.864Z,73.80
2022-09-12T17:25:28.765Z,76.60
2022-09-12T17:35:35.315Z,81.60
2022-09-12T17:45:42.647Z,85.00
2022-09-12T17:55:46.325Z,90.90
2022-09-12T18:05:55.410Z,91.90
2022-09-12T18:16:05.497Z,94.20
2022-09-12T18:26:12.591Z,95.40
2022-09-12T18:36:18.040Z,96.50
2022-09-12T18:46:23.615Z,96.80
2022-09-12T18:56:32.209Z,97.10
2022-09-12T19:06:39.970Z,98.10
2022-09-12T19:16:43.676Z,98.40
2022-09-12T19:26:50.403Z,99.70
2022-09-12T19:36:54.525Z,99.90
2022-09-12T19:46:59.563Z,99.90
2022-09-12T19:57:03.230Z,99.90
2022-09-12T20:07:08.187Z,99.90
2022-09-12T20:17:11.860Z,99.90
2022-09-12T20:27:16.924Z,99.90
2022-09-12T20:37:21.020Z,99.90
2022-09-12T20:47:26.109Z,99.90
2022-09-12T20:57:29.964Z,99.90
2022-09-12T21:07:34.942Z,99.90
2022-09-12T21:17:40.347Z,99.90
2022-09-12T21:27:45.329Z,99.90
2022-09-12T21:37:49.171Z,99.90
2022-09-12T21:47:54.174Z,99.90
2022-09-12T21:57:59.916Z,99.90
2022-09-12T22:08:05.026Z,99.90
2022-09-12T22:18:08.714Z,99.90
2022-09-12T22:28:14.284Z,99.90
2022-09-12T22:38:17.930Z,99.90
2022-09-12T22:48:22.952Z,99.90
2022-09-12T22:58:26.743Z,99.90
2022-09-12T23:08:32.113Z,99.90
2022-09-12T23:18:37.276Z,99.90
2022-09-12T23:28:48.059Z,99.90
2022-09-12T23:38:52.273Z,99.90
2022-09-12T23:48:57.290Z,99.90
2022-09-12T23:59:01.044Z,99.90
